createdAt,value
2023-05-16T00:01:36.397Z,10.36
2023-05-16T00:04:04.682Z,10.36
2023-05-16T00:06:33.568Z,10.37
2023-05-16T00:09:01.723Z,10.38
2023-05-16T00:11:30.909Z,10.37
2023-05-16T00:13:59.000Z,10.40
2023-05-16T00:16:29.444Z,10.43
2023-05-16T00:18:58.100Z,10.43
2023-05-16T00:21:26.710Z,10.43
2023-05-16T00:23:54.916Z,10.47
2023-05-16T00:26:22.846Z,10.46
2023-05-16T00:28:50.918Z,10.47
2023-05-16T00:31:19.122Z,10.51
2023-05-16T00:33:47.221Z,10.52
2023-05-16T00:36:16.171Z,10.52
2023-05-16T00:38:44.406Z,10.55
2023-05-16T00:41:12.380Z,10.58
2023-05-16T00:43:41.674Z,10.60
2023-05-16T00:46:09.841Z,10.63
2023-05-16T00:48:38.057Z,10.66
2023-05-16T00:51:09.540Z,10.66
2023-05-16T00:53:37.935Z,10.68
2023-05-16T00:56:07.060Z,10.69
2023-05-16T00:58:36.781Z,10.68
2023-05-16T01:01:05.102Z,10.68
2023-05-16T01:03:33.380Z,10.70
2023-05-16T01:06:01.404Z,10.70
2023-05-16T01:08:29.431Z,10.68
2023-05-16T01:11:11.612Z,10.67
2023-05-16T01:13:45.860Z,10.65
2023-05-16T01:16:26.424Z,10.62
2023-05-16T01:19:03.903Z,10.54
2023-05-16T01:21:48.516Z,10.49
2023-05-16T01:24:41.518Z,10.47
2023-05-16T01:27:11.967Z,10.49
2023-05-16T01:29:40.582Z,10.53
2023-05-16T01:32:08.504Z,10.54
2023-05-16T01:34:36.525Z,10.56
2023-05-16T01:37:17.393Z,10.57
2023-05-16T01:39:56.862Z,10.59
2023-05-16T01:42:30.510Z,10.59
2023-05-16T01:45:13.408Z,10.61
2023-05-16T01:47:45.640Z,10.55
2023-05-16T01:50:19.400Z,10.49
2023-05-16T01:53:07.026Z,10.42
2023-05-16T01:55:39.470Z,10.35
2023-05-16T01:58:10.262Z,10.28
2023-05-16T02:00:38.423Z,10.21
2023-05-16T02:03:07.150Z,10.14
2023-05-16T02:05:35.764Z,10.08
2023-05-16T02:08:04.437Z,10.04
2023-05-16T02:10:33.049Z,9.98
2023-05-16T02:13:01.033Z,9.94
2023-05-16T02:15:30.302Z,9.91
2023-05-16T02:17:58.816Z,9.85
2023-05-16T02:20:27.007Z,9.81
2023-05-16T02:22:56.079Z,9.78
2023-05-16T02:25:25.576Z,9.72
2023-05-16T02:27:54.141Z,9.66
2023-05-16T02:30:22.186Z,9.63
2023-05-16T02:32:50.198Z,9.58
2023-05-16T02:35:18.706Z,9.55
2023-05-16T02:37:47.174Z,9.53
2023-05-16T02:40:15.926Z,9.49
2023-05-16T02:42:43.931Z,9.50
2023-05-16T02:45:12.572Z,9.49
2023-05-16T02:47:41.577Z,9.48
2023-05-16T02:50:09.960Z,9.44
2023-05-16T02:52:37.966Z,9.44
2023-05-16T02:55:21.096Z,9.45
2023-05-16T02:57:55.111Z,9.46
2023-05-16T03:00:23.803Z,9.56
2023-05-16T03:02:51.845Z,9.87
2023-05-16T03:05:20.051Z,10.24
2023-05-16T03:07:48.014Z,10.52
2023-05-16T03:10:16.295Z,10.79
2023-05-16T03:12:44.266Z,11.13
2023-05-16T03:15:15.121Z,11.42
2023-05-16T03:17:43.155Z,11.76
2023-05-16T03:20:11.772Z,12.15
2023-05-16T03:22:40.679Z,12.51
2023-05-16T03:25:08.980Z,12.75
2023-05-16T03:27:39.972Z,13.01
2023-05-16T03:30:09.252Z,13.02
2023-05-16T03:32:38.306Z,12.80
2023-05-16T03:35:06.794Z,12.91
2023-05-16T03:37:35.322Z,12.97
2023-05-16T03:40:05.668Z,12.86
2023-05-16T03:42:33.617Z,12.82
2023-05-16T03:45:02.919Z,12.78
2023-05-16T03:47:32.187Z,12.65
2023-05-16T03:50:00.358Z,12.60
2023-05-16T03:52:28.873Z,12.60
2023-05-16T03:54:57.200Z,12.63
2023-05-16T03:57:25.577Z,12.61
2023-05-16T03:59:54.741Z,12.60
2023-05-16T04:02:48.484Z,12.76
2023-05-16T04:05:31.413Z,12.87
2023-05-16T04:08:00.174Z,13.01
2023-05-16T04:10:28.398Z,12.99
2023-05-16T04:12:56.267Z,13.06
2023-05-16T04:15:24.360Z,13.12
2023-05-16T04:17:52.536Z,13.24
2023-05-16T04:20:20.551Z,13.28
2023-05-16T04:22:48.747Z,13.39
2023-05-16T04:25:17.361Z,13.60
2023-05-16T04:27:46.097Z,13.94
2023-05-16T04:34:40.025Z,16.85
2023-05-16T04:37:08.622Z,18.08
2023-05-16T04:39:36.994Z,18.93
2023-05-16T04:42:04.942Z,19.80
2023-05-16T04:44:32.716Z,20.54
2023-05-16T04:47:00.763Z,21.27
2023-05-16T04:49:28.987Z,21.42
2023-05-16T04:51:56.853Z,22.00
2023-05-16T04:54:24.782Z,22.63
2023-05-16T04:56:52.714Z,22.91
2023-05-16T04:59:21.282Z,23.24
2023-05-16T05:01:49.123Z,23.57
2023-05-16T05:04:17.915Z,23.92
2023-05-16T05:06:45.742Z,24.31
2023-05-16T05:09:13.970Z,24.81
2023-05-16T05:11:42.435Z,24.66
2023-05-16T05:14:10.452Z,25.10
2023-05-16T05:16:39.421Z,25.28
2023-05-16T05:19:09.005Z,25.39
2023-05-16T05:21:37.838Z,25.34
2023-05-16T05:24:05.981Z,24.69
2023-05-16T05:26:33.953Z,23.52
2023-05-16T05:29:05.681Z,22.96
2023-05-16T05:31:35.309Z,22.26
2023-05-16T05:34:04.404Z,21.76
2023-05-16T05:36:32.364Z,21.42
2023-05-16T05:39:00.366Z,21.39
2023-05-16T05:41:28.514Z,21.08
2023-05-16T05:43:56.397Z,20.88
2023-05-16T05:46:24.768Z,20.94
2023-05-16T05:48:52.854Z,21.13
2023-05-16T05:51:21.116Z,21.07
2023-05-16T05:53:49.146Z,20.90
2023-05-16T05:56:16.965Z,20.34
2023-05-16T05:58:45.473Z,19.70
2023-05-16T06:01:13.479Z,19.17
2023-05-16T06:03:42.958Z,18.59
2023-05-16T06:06:11.081Z,18.09
2023-05-16T06:08:38.941Z,17.58
2023-05-16T06:11:07.011Z,17.28
2023-05-16T06:13:35.053Z,17.26
2023-05-16T06:16:02.974Z,17.28
2023-05-16T06:18:31.728Z,17.12
2023-05-16T06:20:59.764Z,16.72
2023-05-16T06:23:29.930Z,16.52
2023-05-16T06:25:58.845Z,16.21
2023-05-16T06:28:26.811Z,15.85
2023-05-16T06:30:55.091Z,15.82
2023-05-16T06:33:23.110Z,15.58
2023-05-16T06:35:52.695Z,15.38
2023-05-16T06:38:20.867Z,15.16
2023-05-16T06:40:49.347Z,15.14
2023-05-16T06:43:17.926Z,15.10
2023-05-16T06:45:46.813Z,15.00
2023-05-16T06:48:15.815Z,15.14
2023-05-16T06:50:47.520Z,15.39
2023-05-16T06:53:16.250Z,15.76
2023-05-16T06:55:45.011Z,15.72
2023-05-16T06:58:13.318Z,15.51
2023-05-16T07:00:42.046Z,15.41
2023-05-16T07:03:10.135Z,15.37
2023-05-16T07:05:38.207Z,15.27
2023-05-16T07:08:07.913Z,15.49
2023-05-16T07:10:37.506Z,15.90
2023-05-16T07:13:06.436Z,16.13
2023-05-16T07:15:34.585Z,16.45
2023-05-16T07:18:02.727Z,16.29
2023-05-16T07:20:30.999Z,15.93
2023-05-16T07:23:00.074Z,15.79
2023-05-16T07:25:28.339Z,15.59
2023-05-16T07:27:56.554Z,15.49
2023-05-16T07:30:24.709Z,15.72
2023-05-16T07:32:52.733Z,15.77
2023-05-16T07:35:20.774Z,15.86
2023-05-16T07:37:50.649Z,15.95
2023-05-16T07:40:21.306Z,15.72
2023-05-16T07:42:49.234Z,15.40
2023-05-16T07:45:18.099Z,15.41
2023-05-16T07:47:46.501Z,15.77
2023-05-16T07:50:14.917Z,16.52
2023-05-16T07:52:43.083Z,17.25
2023-05-16T07:55:11.334Z,17.89
2023-05-16T07:57:39.930Z,18.55
2023-05-16T08:00:09.548Z,18.96
2023-05-16T08:02:41.181Z,19.22
2023-05-16T08:05:10.248Z,19.28
2023-05-16T08:07:38.274Z,19.27
2023-05-16T08:10:06.864Z,19.25
2023-05-16T08:12:35.232Z,19.18
2023-05-16T08:15:04.364Z,18.80
2023-05-16T08:17:32.489Z,18.27
2023-05-16T08:20:01.921Z,17.77
2023-05-16T08:22:29.930Z,17.59
2023-05-16T08:24:58.373Z,17.28
2023-05-16T08:27:27.667Z,17.12
2023-05-16T08:29:56.602Z,16.84
2023-05-16T08:32:24.627Z,16.65
2023-05-16T08:34:52.630Z,16.57
2023-05-16T08:37:20.993Z,16.61
2023-05-16T08:39:49.195Z,16.78
2023-05-16T08:42:17.476Z,17.01
2023-05-16T08:44:45.676Z,17.16
2023-05-16T08:47:22.111Z,17.43
2023-05-16T08:49:52.508Z,17.83
2023-05-16T08:52:24.685Z,17.50
2023-05-16T08:55:09.192Z,17.49
2023-05-16T08:57:39.365Z,17.43
2023-05-16T09:00:12.437Z,17.39
2023-05-16T09:02:42.679Z,17.67
2023-05-16T09:05:16.152Z,17.85
2023-05-16T09:07:45.647Z,17.90
2023-05-16T09:10:13.915Z,17.82
2023-05-16T09:12:43.074Z,17.74
2023-05-16T09:15:12.095Z,17.76
2023-05-16T09:17:44.891Z,18.04
2023-05-16T09:20:18.370Z,18.12
2023-05-16T09:22:57.909Z,17.99
2023-05-16T09:25:31.323Z,17.82
2023-05-16T09:28:02.716Z,17.51
2023-05-16T09:30:34.421Z,17.42
2023-05-16T09:33:03.235Z,17.43
2023-05-16T09:38:02.940Z,17.62
2023-05-16T09:40:31.156Z,17.61
2023-05-16T09:43:07.065Z,18.04
2023-05-16T09:45:36.768Z,18.54
2023-05-16T09:48:07.091Z,18.66
2023-05-16T09:50:37.006Z,18.45
2023-05-16T09:53:06.218Z,18.31
2023-05-16T09:55:36.445Z,18.30
2023-05-16T09:58:04.558Z,18.28
2023-05-16T10:00:34.148Z,18.47
2023-05-16T10:03:06.324Z,18.75
2023-05-16T10:05:35.712Z,18.69
2023-05-16T10:08:04.692Z,18.90
2023-05-16T10:10:36.487Z,19.07
2023-05-16T10:13:05.906Z,18.91
2023-05-16T10:15:37.730Z,18.63
2023-05-16T10:18:13.184Z,18.34
2023-05-16T10:20:43.215Z,17.97
2023-05-16T10:23:18.432Z,17.73
2023-05-16T10:25:49.225Z,17.61
2023-05-16T10:28:17.619Z,17.50
2023-05-16T10:30:46.891Z,17.43
2023-05-16T10:33:17.802Z,17.39
2023-05-16T10:35:46.764Z,17.48
2023-05-16T10:38:19.635Z,17.54
2023-05-16T10:40:48.925Z,17.47
2023-05-16T10:43:28.592Z,17.40
2023-05-16T10:45:58.755Z,17.50
2023-05-16T10:48:39.052Z,17.78
2023-05-16T10:51:22.209Z,18.13
2023-05-16T10:53:54.795Z,18.31
2023-05-16T10:56:24.301Z,18.39
2023-05-16T10:58:54.575Z,18.53
2023-05-16T11:04:53.249Z,18.68
2023-05-16T11:07:23.834Z,18.82
2023-05-16T11:10:18.580Z,18.93
2023-05-16T11:12:50.042Z,19.07
2023-05-16T11:15:21.008Z,19.24
2023-05-16T11:17:49.617Z,19.26
2023-05-16T11:20:37.556Z,19.39
2023-05-16T11:23:17.951Z,19.51
2023-05-16T11:25:47.208Z,19.56
2023-05-16T11:28:15.575Z,19.52
2023-05-16T11:30:52.707Z,19.37
2023-05-16T11:33:21.318Z,19.32
2023-05-16T11:38:43.596Z,19.83
2023-05-16T11:41:12.375Z,20.13
2023-05-16T11:43:46.424Z,20.18
2023-05-16T11:46:18.736Z,20.29
2023-05-16T11:48:47.526Z,20.38
2023-05-16T11:51:19.393Z,20.31
2023-05-16T11:53:50.071Z,20.25
2023-05-16T11:56:18.895Z,20.35
2023-05-16T11:58:47.710Z,20.55
2023-05-16T12:01:16.392Z,20.70
2023-05-16T12:03:44.674Z,20.85
2023-05-16T12:06:12.844Z,20.88
2023-05-16T12:08:49.512Z,20.88
2023-05-16T12:11:17.578Z,20.97
2023-05-16T12:13:45.736Z,20.92
2023-05-16T12:16:14.191Z,21.15
2023-05-16T12:18:43.633Z,21.45
2023-05-16T12:21:12.641Z,21.55
2023-05-16T12:23:42.532Z,21.56
2023-05-16T12:26:10.457Z,21.47
2023-05-16T12:28:39.561Z,21.25
2023-05-16T12:31:23.094Z,20.79
2023-05-16T12:33:59.139Z,20.56
2023-05-16T12:36:31.702Z,20.23
2023-05-16T12:39:07.273Z,20.11
2023-05-16T12:41:41.480Z,19.98
2023-05-16T12:44:19.928Z,19.90
2023-05-16T12:46:50.209Z,19.76
2023-05-16T12:49:24.085Z,19.72
2023-05-16T12:51:53.162Z,19.73
2023-05-16T12:54:23.125Z,19.73
2023-05-16T12:56:51.499Z,19.80
2023-05-16T12:59:20.364Z,20.05
2023-05-16T13:01:49.017Z,20.13
2023-05-16T13:04:19.977Z,20.27
2023-05-16T13:06:59.073Z,20.29
2023-05-16T13:09:31.973Z,20.12
2023-05-16T13:12:00.934Z,20.07
2023-05-16T13:14:29.013Z,20.12
2023-05-16T13:16:57.135Z,20.20
2023-05-16T13:19:25.244Z,20.27
2023-05-16T13:21:53.568Z,20.22
2023-05-16T13:24:22.394Z,20.12
2023-05-16T13:26:50.270Z,20.04
2023-05-16T13:29:18.550Z,19.87
2023-05-16T13:31:46.696Z,19.86
2023-05-16T13:34:14.906Z,19.89
2023-05-16T13:36:53.995Z,19.90
2023-05-16T13:39:41.341Z,19.81
2023-05-16T13:42:27.769Z,19.60
2023-05-16T13:44:56.315Z,19.57
2023-05-16T13:47:24.426Z,19.52
2023-05-16T13:49:56.134Z,19.49
2023-05-16T13:52:24.152Z,19.54
2023-05-16T13:54:52.346Z,19.61
2023-05-16T13:57:23.034Z,19.65
2023-05-16T14:02:22.524Z,19.90
2023-05-16T14:04:50.533Z,19.81
2023-05-16T14:07:19.598Z,19.77
2023-05-16T14:09:47.872Z,19.82
2023-05-16T14:12:16.071Z,19.91
2023-05-16T14:14:44.281Z,20.15
2023-05-16T14:17:12.391Z,20.48
2023-05-16T14:19:40.884Z,20.78
2023-05-16T14:22:09.044Z,20.98
2023-05-16T14:24:37.115Z,21.12
2023-05-16T14:27:05.386Z,21.28
2023-05-16T14:29:33.372Z,21.43
2023-05-16T14:32:01.693Z,21.59
2023-05-16T14:34:30.325Z,21.73
2023-05-16T14:36:58.417Z,21.77
2023-05-16T14:39:28.155Z,21.54
2023-05-16T14:42:01.387Z,21.51
2023-05-16T14:44:35.147Z,21.30
2023-05-16T14:47:04.549Z,21.01
2023-05-16T14:49:32.751Z,21.01
2023-05-16T14:52:01.019Z,21.10
2023-05-16T14:54:30.177Z,21.10
2023-05-16T14:57:16.487Z,21.08
2023-05-16T14:59:44.616Z,20.88
2023-05-16T15:02:12.766Z,20.88
2023-05-16T15:04:40.950Z,20.66
2023-05-16T15:07:09.003Z,20.23
2023-05-16T15:09:37.070Z,20.09
2023-05-16T15:12:05.863Z,20.11
2023-05-16T15:14:34.918Z,20.19
2023-05-16T15:17:06.041Z,20.00
2023-05-16T15:19:36.315Z,20.03
2023-05-16T15:22:07.849Z,20.02
2023-05-16T15:24:36.457Z,19.87
2023-05-16T15:27:05.250Z,19.56
2023-05-16T15:29:34.858Z,19.18
2023-05-16T15:32:06.857Z,18.91
2023-05-16T15:34:35.681Z,18.82
2023-05-16T15:37:04.006Z,18.92
2023-05-16T15:39:32.326Z,19.03
2023-05-16T15:42:10.751Z,19.11
2023-05-16T15:44:39.787Z,19.17
2023-05-16T15:47:08.230Z,19.23
2023-05-16T15:49:36.747Z,19.27
2023-05-16T15:52:05.344Z,19.22
2023-05-16T15:54:34.597Z,19.11
2023-05-16T15:57:03.239Z,18.85
2023-05-16T15:59:31.464Z,18.54
2023-05-16T16:01:59.465Z,18.38
2023-05-16T16:04:27.508Z,18.29
2023-05-16T16:06:55.635Z,18.23
2023-05-16T16:09:25.355Z,18.12
2023-05-16T16:11:56.418Z,17.95
2023-05-16T16:14:24.739Z,17.92
2023-05-16T16:16:52.768Z,17.91
2023-05-16T16:19:21.736Z,17.83
2023-05-16T16:21:50.535Z,17.74
2023-05-16T16:24:20.230Z,17.74
2023-05-16T16:26:48.507Z,17.62
2023-05-16T16:29:16.805Z,17.58
2023-05-16T16:31:45.441Z,17.55
2023-05-16T16:34:13.447Z,17.50
2023-05-16T16:36:42.314Z,17.52
2023-05-16T16:39:10.563Z,17.53
2023-05-16T16:41:38.855Z,17.50
2023-05-16T16:44:06.930Z,17.47
2023-05-16T16:46:35.136Z,17.47
2023-05-16T16:49:03.767Z,17.43
2023-05-16T16:51:34.949Z,17.42
2023-05-16T16:54:03.072Z,17.38
2023-05-16T16:56:31.685Z,17.38
2023-05-16T16:58:59.789Z,17.35
2023-05-16T17:01:29.847Z,17.33
2023-05-16T17:03:58.835Z,17.29
2023-05-16T17:06:28.709Z,17.24
2023-05-16T17:08:57.227Z,17.20
2023-05-16T17:11:25.526Z,17.24
2023-05-16T17:13:59.252Z,17.21
2023-05-16T17:16:30.102Z,17.15
2023-05-16T17:18:58.386Z,17.09
2023-05-16T17:21:28.214Z,17.06
2023-05-16T17:23:58.263Z,17.03
2023-05-16T17:26:29.180Z,17.02
2023-05-16T17:28:58.745Z,17.01
2023-05-16T17:31:28.174Z,17.00
2023-05-16T17:33:57.156Z,16.93
2023-05-16T17:36:25.259Z,16.89
2023-05-16T17:38:53.381Z,16.86
2023-05-16T17:41:22.363Z,16.82
2023-05-16T17:43:51.041Z,16.79
2023-05-16T17:46:19.092Z,16.77
2023-05-16T17:48:47.778Z,16.73
2023-05-16T17:51:17.387Z,16.68
2023-05-16T17:53:45.975Z,16.64
2023-05-16T17:56:14.187Z,16.58
2023-05-16T17:58:42.592Z,16.57
2023-05-16T18:01:11.051Z,16.53
2023-05-16T18:03:41.498Z,16.47
2023-05-16T18:06:11.551Z,16.40
2023-05-16T18:08:39.870Z,16.31
2023-05-16T18:11:08.468Z,16.23
2023-05-16T18:13:36.778Z,16.13
2023-05-16T18:16:05.115Z,16.02
2023-05-16T18:18:33.418Z,15.86
2023-05-16T18:21:01.640Z,15.76
2023-05-16T18:23:29.985Z,15.66
2023-05-16T18:25:58.267Z,15.59
2023-05-16T18:28:26.367Z,15.50
2023-05-16T18:30:54.455Z,15.38
2023-05-16T18:33:22.733Z,15.27
2023-05-16T18:35:50.905Z,15.22
2023-05-16T18:38:31.332Z,15.17
2023-05-16T18:41:01.288Z,15.14
2023-05-16T18:43:30.776Z,15.11
2023-05-16T18:45:58.900Z,15.09
2023-05-16T18:48:27.007Z,15.08
2023-05-16T18:50:55.213Z,15.05
2023-05-16T18:53:23.652Z,15.00
2023-05-16T18:55:51.828Z,14.95
2023-05-16T18:58:19.887Z,14.90
2023-05-16T19:04:36.505Z,14.77
2023-05-16T19:07:06.038Z,14.70
2023-05-16T19:09:36.908Z,14.63
2023-05-16T19:12:05.938Z,14.56
2023-05-16T19:14:34.049Z,14.50
2023-05-16T19:17:02.221Z,14.46
2023-05-16T19:19:31.233Z,14.41
2023-05-16T19:21:59.448Z,14.37
2023-05-16T19:24:27.955Z,14.32
2023-05-16T19:26:56.034Z,14.28
2023-05-16T19:29:24.034Z,14.23
2023-05-16T19:31:52.576Z,14.20
2023-05-16T19:34:21.493Z,14.16
2023-05-16T19:36:49.581Z,14.12
2023-05-16T19:39:19.015Z,14.08
2023-05-16T19:41:51.680Z,14.03
2023-05-16T19:44:20.602Z,13.97
2023-05-16T19:46:48.758Z,13.91
2023-05-16T19:49:20.221Z,13.87
2023-05-16T19:51:49.270Z,13.83
2023-05-16T19:54:17.645Z,13.79
2023-05-16T19:56:46.273Z,13.76
2023-05-16T19:59:14.554Z,13.72
2023-05-16T20:01:44.054Z,13.70
2023-05-16T20:04:13.328Z,13.66
2023-05-16T20:06:41.567Z,13.62
2023-05-16T20:09:11.265Z,13.59
2023-05-16T20:11:39.578Z,13.52
2023-05-16T20:14:07.671Z,13.48
2023-05-16T20:16:35.766Z,13.44
2023-05-16T20:19:04.348Z,13.39
2023-05-16T20:21:32.521Z,13.37
2023-05-16T20:24:00.631Z,13.35
2023-05-16T20:26:28.626Z,13.30
2023-05-16T20:28:56.679Z,13.26
2023-05-16T20:31:24.920Z,13.23
2023-05-16T20:33:53.779Z,13.22
2023-05-16T20:36:21.992Z,13.20
2023-05-16T20:38:50.863Z,13.19
2023-05-16T20:41:19.255Z,13.17
2023-05-16T20:43:47.405Z,13.16
2023-05-16T20:46:15.665Z,13.16
2023-05-16T20:48:44.160Z,13.15
2023-05-16T20:51:12.187Z,13.13
2023-05-16T20:53:40.269Z,13.11
2023-05-16T20:56:08.387Z,13.08
2023-05-16T20:58:41.149Z,13.06
2023-05-16T21:01:09.497Z,13.03
2023-05-16T21:03:37.697Z,13.00
2023-05-16T21:06:06.460Z,12.97
2023-05-16T21:08:34.743Z,12.93
2023-05-16T21:11:03.739Z,12.92
2023-05-16T21:13:31.770Z,12.90
2023-05-16T21:15:59.926Z,12.88
2023-05-16T21:18:28.039Z,12.86
2023-05-16T21:20:56.278Z,12.85
2023-05-16T21:23:24.382Z,12.84
2023-05-16T21:25:52.409Z,12.83
2023-05-16T21:28:20.484Z,12.81
2023-05-16T21:30:48.797Z,12.81
2023-05-16T21:33:18.204Z,12.79
2023-05-16T21:35:47.173Z,12.79
2023-05-16T21:38:16.065Z,12.78
2023-05-16T21:40:44.316Z,12.77
2023-05-16T21:43:12.583Z,12.76
2023-05-16T21:45:40.718Z,12.76
2023-05-16T21:48:09.316Z,12.75
2023-05-16T21:50:37.935Z,12.73
2023-05-16T21:53:06.269Z,12.72
2023-05-16T21:55:35.098Z,12.71
2023-05-16T21:58:03.766Z,12.69
2023-05-16T22:00:31.762Z,12.67
2023-05-16T22:02:59.818Z,12.66
2023-05-16T22:05:28.585Z,12.65
2023-05-16T22:07:57.576Z,12.64
2023-05-16T22:10:25.770Z,12.62
2023-05-16T22:12:54.001Z,12.61
2023-05-16T22:15:22.064Z,12.60
2023-05-16T22:17:51.225Z,12.60
2023-05-16T22:20:21.589Z,12.59
2023-05-16T22:22:50.810Z,12.59
2023-05-16T22:25:22.045Z,12.60
2023-05-16T22:27:59.263Z,12.60
2023-05-16T22:30:27.659Z,12.60
2023-05-16T22:32:57.135Z,12.60
2023-05-16T22:35:27.376Z,12.58
2023-05-16T22:37:55.480Z,12.57
2023-05-16T22:40:23.472Z,12.57
2023-05-16T22:42:51.528Z,12.56
2023-05-16T22:45:19.773Z,12.56
2023-05-16T22:47:47.781Z,12.54
2023-05-16T22:50:15.947Z,12.53
2023-05-16T22:52:44.021Z,12.52
2023-05-16T22:55:12.080Z,12.52
2023-05-16T22:57:40.195Z,12.49
2023-05-16T23:00:09.162Z,12.47
2023-05-16T23:02:37.248Z,12.44
2023-05-16T23:05:05.808Z,12.43
2023-05-16T23:07:33.940Z,12.44
2023-05-16T23:10:04.023Z,12.45
2023-05-16T23:12:32.014Z,12.45
2023-05-16T23:15:00.073Z,12.46
2023-05-16T23:17:28.677Z,12.46
2023-05-16T23:19:57.121Z,12.46
2023-05-16T23:22:25.210Z,12.45
2023-05-16T23:24:53.301Z,12.45
2023-05-16T23:27:22.277Z,12.46
2023-05-16T23:29:53.310Z,12.46
2023-05-16T23:32:21.386Z,12.47
2023-05-16T23:34:49.508Z,12.48
2023-05-16T23:37:18.273Z,12.47
2023-05-16T23:39:46.269Z,12.47
2023-05-16T23:42:14.260Z,12.47
2023-05-16T23:44:42.305Z,12.47
2023-05-16T23:47:10.310Z,12.48
2023-05-16T23:49:38.284Z,12.47
2023-05-16T23:52:06.557Z,12.47
2023-05-16T23:54:34.724Z,12.48
2023-05-16T23:57:02.645Z,12.48
2023-05-16T23:59:31.025Z,12.46
